sensor_id;sensor_type;location;lat;lon;timestamp;P1;durP1;ratioP1;P2;durP2;ratioP2
38427;SDS011;24211;49.980;19.776;2023-07-09T00:02:19;5.00;;;2.80;;
38427;SDS011;24211;49.980;19.776;2023-07-09T00:04:48;5.80;;;3.13;;
38427;SDS011;24211;49.980;19.776;2023-07-09T00:07:21;6.32;;;2.90;;
38427;SDS011;24211;49.980;19.776;2023-07-09T00:09:55;5.20;;;3.00;;
38427;SDS011;24211;49.980;19.776;2023-07-09T00:12:23;5.47;;;3.08;;
38427;SDS011;24211;49.980;19.776;2023-07-09T00:14:50;6.63;;;2.80;;
38427;SDS011;24211;49.980;19.776;2023-07-09T00:17:23;5.10;;;2.80;;
38427;SDS011;24211;49.980;19.776;2023-07-09T00:20:00;5.50;;;3.00;;
38427;SDS011;24211;49.980;19.776;2023-07-09T00:22:31;6.13;;;2.92;;
38427;SDS011;24211;49.980;19.776;2023-07-09T00:24:58;5.45;;;2.92;;
38427;SDS011;24211;49.980;19.776;2023-07-09T00:27:27;5.20;;;2.90;;
38427;SDS011;24211;49.980;19.776;2023-07-09T00:29:57;4.90;;;2.88;;
38427;SDS011;24211;49.980;19.776;2023-07-09T00:32:24;7.43;;;3.13;;
38427;SDS011;24211;49.980;19.776;2023-07-09T00:34:52;5.15;;;2.60;;
38427;SDS011;24211;49.980;19.776;2023-07-09T00:37:23;5.65;;;2.88;;
38427;SDS011;24211;49.980;19.776;2023-07-09T00:39:52;6.43;;;2.67;;
38427;SDS011;24211;49.980;19.776;2023-07-09T00:42:20;5.40;;;2.60;;
38427;SDS011;24211;49.980;19.776;2023-07-09T00:44:53;6.82;;;3.00;;
38427;SDS011;24211;49.980;19.776;2023-07-09T00:47:22;4.97;;;2.90;;
38427;SDS011;24211;49.980;19.776;2023-07-09T00:53:20;6.00;;;2.63;;
38427;SDS011;24211;49.980;19.776;2023-07-09T00:55:57;5.35;;;2.85;;
38427;SDS011;24211;49.980;19.776;2023-07-09T00:58:32;4.53;;;2.70;;
38427;SDS011;24211;49.980;19.776;2023-07-09T01:03:48;5.40;;;2.78;;
38427;SDS011;24211;49.980;19.776;2023-07-09T01:06:25;4.80;;;2.50;;
38427;SDS011;24211;49.980;19.776;2023-07-09T01:08:59;5.55;;;2.85;;
38427;SDS011;24211;49.980;19.776;2023-07-09T01:11:32;5.93;;;3.08;;
38427;SDS011;24211;49.980;19.776;2023-07-09T01:14:00;5.43;;;3.00;;
38427;SDS011;24211;49.980;19.776;2023-07-09T01:19:09;6.38;;;2.90;;
38427;SDS011;24211;49.980;19.776;2023-07-09T01:21:36;5.68;;;3.03;;
38427;SDS011;24211;49.980;19.776;2023-07-09T01:24:15;7.15;;;2.92;;
38427;SDS011;24211;49.980;19.776;2023-07-09T01:27:12;5.03;;;2.70;;
38427;SDS011;24211;49.980;19.776;2023-07-09T01:29:40;6.15;;;2.88;;
38427;SDS011;24211;49.980;19.776;2023-07-09T01:32:13;5.22;;;2.80;;
38427;SDS011;24211;49.980;19.776;2023-07-09T01:34:46;6.18;;;3.05;;
38427;SDS011;24211;49.980;19.776;2023-07-09T01:37:21;5.93;;;3.08;;
38427;SDS011;24211;49.980;19.776;2023-07-09T01:39:52;5.40;;;2.95;;
38427;SDS011;24211;49.980;19.776;2023-07-09T01:42:21;5.22;;;2.80;;
38427;SDS011;24211;49.980;19.776;2023-07-09T01:44:52;4.65;;;2.60;;
38427;SDS011;24211;49.980;19.776;2023-07-09T01:47:20;5.38;;;2.85;;
38427;SDS011;24211;49.980;19.776;2023-07-09T01:49:51;5.10;;;2.63;;
38427;SDS011;24211;49.980;19.776;2023-07-09T01:52:25;6.10;;;2.65;;
38427;SDS011;24211;49.980;19.776;2023-07-09T01:54:55;5.05;;;2.67;;
38427;SDS011;24211;49.980;19.776;2023-07-09T01:57:24;5.50;;;2.75;;
38427;SDS011;24211;49.980;19.776;2023-07-09T02:00:05;5.50;;;2.70;;
38427;SDS011;24211;49.980;19.776;2023-07-09T02:02:43;6.25;;;2.80;;
38427;SDS011;24211;49.980;19.776;2023-07-09T02:05:14;6.03;;;2.90;;
38427;SDS011;24211;49.980;19.776;2023-07-09T02:07:46;5.07;;;2.70;;
38427;SDS011;24211;49.980;19.776;2023-07-09T02:10:15;5.15;;;2.70;;
38427;SDS011;24211;49.980;19.776;2023-07-09T02:12:44;5.05;;;2.65;;
38427;SDS011;24211;49.980;19.776;2023-07-09T02:15:13;4.70;;;2.70;;
38427;SDS011;24211;49.980;19.776;2023-07-09T02:17:42;5.57;;;2.85;;
38427;SDS011;24211;49.980;19.776;2023-07-09T02:20:11;5.15;;;2.97;;
38427;SDS011;24211;49.980;19.776;2023-07-09T02:22:39;6.03;;;2.90;;
38427;SDS011;24211;49.980;19.776;2023-07-09T02:25:08;5.63;;;2.80;;
38427;SDS011;24211;49.980;19.776;2023-07-09T02:27:36;4.80;;;2.83;;
38427;SDS011;24211;49.980;19.776;2023-07-09T02:30:05;5.13;;;2.88;;
38427;SDS011;24211;49.980;19.776;2023-07-09T02:32:34;5.57;;;3.08;;
38427;SDS011;24211;49.980;19.776;2023-07-09T02:35:02;5.00;;;3.00;;
38427;SDS011;24211;49.980;19.776;2023-07-09T02:37:30;5.63;;;2.55;;
38427;SDS011;24211;49.980;19.776;2023-07-09T02:39:58;4.55;;;2.67;;
38427;SDS011;24211;49.980;19.776;2023-07-09T02:42:25;5.30;;;2.80;;
38427;SDS011;24211;49.980;19.776;2023-07-09T02:44:53;4.95;;;2.70;;
38427;SDS011;24211;49.980;19.776;2023-07-09T02:47:23;5.63;;;2.95;;
38427;SDS011;24211;49.980;19.776;2023-07-09T02:49:52;6.03;;;2.63;;
38427;SDS011;24211;49.980;19.776;2023-07-09T02:52:19;5.13;;;2.47;;
38427;SDS011;24211;49.980;19.776;2023-07-09T02:54:46;5.18;;;2.63;;
38427;SDS011;24211;49.980;19.776;2023-07-09T02:57:13;5.55;;;2.55;;
38427;SDS011;24211;49.980;19.776;2023-07-09T02:59:41;4.80;;;2.58;;
38427;SDS011;24211;49.980;19.776;2023-07-09T03:02:08;4.50;;;2.60;;
38427;SDS011;24211;49.980;19.776;2023-07-09T03:04:35;5.13;;;2.70;;
38427;SDS011;24211;49.980;19.776;2023-07-09T03:07:02;4.80;;;2.67;;
38427;SDS011;24211;49.980;19.776;2023-07-09T03:09:30;4.40;;;2.40;;
38427;SDS011;24211;49.980;19.776;2023-07-09T03:11:57;5.43;;;2.63;;
38427;SDS011;24211;49.980;19.776;2023-07-09T03:14:24;5.63;;;2.92;;
38427;SDS011;24211;49.980;19.776;2023-07-09T03:16:51;4.57;;;2.60;;
38427;SDS011;24211;49.980;19.776;2023-07-09T03:19:19;6.40;;;3.10;;
38427;SDS011;24211;49.980;19.776;2023-07-09T03:21:46;5.28;;;2.80;;
38427;SDS011;24211;49.980;19.776;2023-07-09T03:24:14;4.70;;;2.60;;
38427;SDS011;24211;49.980;19.776;2023-07-09T03:26:45;5.78;;;2.55;;
38427;SDS011;24211;49.980;19.776;2023-07-09T03:29:13;5.13;;;2.85;;
38427;SDS011;24211;49.980;19.776;2023-07-09T03:31:41;4.90;;;2.78;;
38427;SDS011;24211;49.980;19.776;2023-07-09T03:34:08;6.65;;;2.65;;
38427;SDS011;24211;49.980;19.776;2023-07-09T03:36:35;5.65;;;2.97;;
38427;SDS011;24211;49.980;19.776;2023-07-09T03:39:06;5.07;;;2.60;;
38427;SDS011;24211;49.980;19.776;2023-07-09T03:41:33;4.70;;;2.65;;
38427;SDS011;24211;49.980;19.776;2023-07-09T03:44:01;5.03;;;2.55;;
38427;SDS011;24211;49.980;19.776;2023-07-09T03:46:29;5.22;;;2.58;;
38427;SDS011;24211;49.980;19.776;2023-07-09T03:48:57;5.68;;;2.88;;
38427;SDS011;24211;49.980;19.776;2023-07-09T03:51:26;5.28;;;2.42;;
38427;SDS011;24211;49.980;19.776;2023-07-09T03:53:54;5.85;;;2.70;;
38427;SDS011;24211;49.980;19.776;2023-07-09T03:56:21;5.18;;;2.75;;
38427;SDS011;24211;49.980;19.776;2023-07-09T03:58:49;3.95;;;2.42;;
38427;SDS011;24211;49.980;19.776;2023-07-09T04:01:16;5.40;;;2.72;;
38427;SDS011;24211;49.980;19.776;2023-07-09T04:03:43;5.97;;;2.85;;
38427;SDS011;24211;49.980;19.776;2023-07-09T04:06:11;6.60;;;3.10;;
38427;SDS011;24211;49.980;19.776;2023-07-09T04:08:38;6.15;;;2.95;;
38427;SDS011;24211;49.980;19.776;2023-07-09T04:11:05;5.07;;;2.92;;
38427;SDS011;24211;49.980;19.776;2023-07-09T04:13:32;4.93;;;2.78;;
38427;SDS011;24211;49.980;19.776;2023-07-09T04:16:00;6.45;;;2.92;;
38427;SDS011;24211;49.980;19.776;2023-07-09T04:18:27;5.88;;;3.15;;
38427;SDS011;24211;49.980;19.776;2023-07-09T04:20:54;4.45;;;2.67;;
38427;SDS011;24211;49.980;19.776;2023-07-09T04:23:22;6.07;;;3.25;;
38427;SDS011;24211;49.980;19.776;2023-07-09T04:25:49;7.78;;;3.15;;
38427;SDS011;24211;49.980;19.776;2023-07-09T04:28:16;5.20;;;2.53;;
38427;SDS011;24211;49.980;19.776;2023-07-09T04:30:47;6.05;;;3.00;;
38427;SDS011;24211;49.980;19.776;2023-07-09T04:33:19;4.85;;;2.90;;
38427;SDS011;24211;49.980;19.776;2023-07-09T04:35:48;6.35;;;2.95;;
38427;SDS011;24211;49.980;19.776;2023-07-09T04:38:16;5.05;;;2.75;;
38427;SDS011;24211;49.980;19.776;2023-07-09T04:40:43;5.32;;;3.10;;
38427;SDS011;24211;49.980;19.776;2023-07-09T04:43:11;5.18;;;2.90;;
38427;SDS011;24211;49.980;19.776;2023-07-09T04:45:38;5.00;;;2.50;;
38427;SDS011;24211;49.980;19.776;2023-07-09T04:48:06;5.40;;;2.80;;
38427;SDS011;24211;49.980;19.776;2023-07-09T04:50:33;5.60;;;3.20;;
38427;SDS011;24211;49.980;19.776;2023-07-09T04:53:01;5.35;;;3.00;;
38427;SDS011;24211;49.980;19.776;2023-07-09T04:55:28;5.90;;;3.42;;
38427;SDS011;24211;49.980;19.776;2023-07-09T04:57:55;5.57;;;3.35;;
38427;SDS011;24211;49.980;19.776;2023-07-09T05:00:23;6.90;;;3.60;;
38427;SDS011;24211;49.980;19.776;2023-07-09T05:02:50;6.25;;;3.60;;
38427;SDS011;24211;49.980;19.776;2023-07-09T05:05:17;7.07;;;3.80;;
38427;SDS011;24211;49.980;19.776;2023-07-09T05:07:44;6.97;;;3.70;;
38427;SDS011;24211;49.980;19.776;2023-07-09T05:10:11;6.57;;;3.97;;
38427;SDS011;24211;49.980;19.776;2023-07-09T05:12:49;6.28;;;3.70;;
38427;SDS011;24211;49.980;19.776;2023-07-09T05:15:18;6.97;;;3.78;;
38427;SDS011;24211;49.980;19.776;2023-07-09T05:17:47;7.40;;;3.70;;
38427;SDS011;24211;49.980;19.776;2023-07-09T05:20:14;7.07;;;3.47;;
38427;SDS011;24211;49.980;19.776;2023-07-09T05:22:42;7.30;;;3.90;;
38427;SDS011;24211;49.980;19.776;2023-07-09T05:25:10;5.95;;;3.50;;
38427;SDS011;24211;49.980;19.776;2023-07-09T05:27:38;6.18;;;3.58;;
38427;SDS011;24211;49.980;19.776;2023-07-09T05:30:06;6.22;;;3.78;;
38427;SDS011;24211;49.980;19.776;2023-07-09T05:32:34;5.72;;;3.22;;
38427;SDS011;24211;49.980;19.776;2023-07-09T05:35:03;7.72;;;3.33;;
38427;SDS011;24211;49.980;19.776;2023-07-09T05:37:31;6.05;;;3.38;;
38427;SDS011;24211;49.980;19.776;2023-07-09T05:39:58;6.13;;;3.38;;
38427;SDS011;24211;49.980;19.776;2023-07-09T05:42:26;5.03;;;2.95;;
38427;SDS011;24211;49.980;19.776;2023-07-09T05:44:53;6.10;;;3.47;;
38427;SDS011;24211;49.980;19.776;2023-07-09T05:47:20;4.85;;;3.00;;
38427;SDS011;24211;49.980;19.776;2023-07-09T05:49:48;6.10;;;3.33;;
38427;SDS011;24211;49.980;19.776;2023-07-09T05:52:17;6.45;;;3.22;;
38427;SDS011;24211;49.980;19.776;2023-07-09T05:54:48;5.13;;;3.00;;
38427;SDS011;24211;49.980;19.776;2023-07-09T05:57:18;4.72;;;2.80;;
38427;SDS011;24211;49.980;19.776;2023-07-09T05:59:45;5.43;;;2.92;;
38427;SDS011;24211;49.980;19.776;2023-07-09T06:02:13;5.22;;;2.95;;
38427;SDS011;24211;49.980;19.776;2023-07-09T06:04:44;4.43;;;2.70;;
38427;SDS011;24211;49.980;19.776;2023-07-09T06:07:12;5.03;;;2.97;;
38427;SDS011;24211;49.980;19.776;2023-07-09T06:09:40;5.60;;;2.92;;
38427;SDS011;24211;49.980;19.776;2023-07-09T06:12:07;5.20;;;3.13;;
38427;SDS011;24211;49.980;19.776;2023-07-09T06:14:36;5.13;;;3.00;;
38427;SDS011;24211;49.980;19.776;2023-07-09T06:17:03;4.95;;;2.80;;
38427;SDS011;24211;49.980;19.776;2023-07-09T06:19:30;5.03;;;3.00;;
38427;SDS011;24211;49.980;19.776;2023-07-09T06:21:57;5.00;;;2.90;;
38427;SDS011;24211;49.980;19.776;2023-07-09T06:24:24;4.50;;;2.67;;
38427;SDS011;24211;49.980;19.776;2023-07-09T06:26:52;4.40;;;2.70;;
38427;SDS011;24211;49.980;19.776;2023-07-09T06:29:19;5.13;;;2.47;;
38427;SDS011;24211;49.980;19.776;2023-07-09T06:31:46;5.57;;;2.80;;
38427;SDS011;24211;49.980;19.776;2023-07-09T06:34:13;4.60;;;2.63;;
38427;SDS011;24211;49.980;19.776;2023-07-09T06:36:41;4.25;;;2.33;;
38427;SDS011;24211;49.980;19.776;2023-07-09T06:39:10;4.78;;;2.60;;
38427;SDS011;24211;49.980;19.776;2023-07-09T06:41:37;4.25;;;2.50;;
38427;SDS011;24211;49.980;19.776;2023-07-09T06:44:25;4.65;;;2.65;;
38427;SDS011;24211;49.980;19.776;2023-07-09T06:46:53;4.35;;;2.53;;
38427;SDS011;24211;49.980;19.776;2023-07-09T06:49:20;4.88;;;2.70;;
38427;SDS011;24211;49.980;19.776;2023-07-09T06:51:48;4.15;;;2.40;;
38427;SDS011;24211;49.980;19.776;2023-07-09T06:54:15;4.88;;;2.78;;
38427;SDS011;24211;49.980;19.776;2023-07-09T06:56:42;4.25;;;2.60;;
38427;SDS011;24211;49.980;19.776;2023-07-09T06:59:09;5.00;;;2.67;;
38427;SDS011;24211;49.980;19.776;2023-07-09T07:01:37;6.18;;;2.63;;
38427;SDS011;24211;49.980;19.776;2023-07-09T07:04:04;4.70;;;2.63;;
38427;SDS011;24211;49.980;19.776;2023-07-09T07:06:31;3.90;;;2.50;;
38427;SDS011;24211;49.980;19.776;2023-07-09T07:08:58;4.93;;;2.70;;
38427;SDS011;24211;49.980;19.776;2023-07-09T07:11:25;4.22;;;2.35;;
38427;SDS011;24211;49.980;19.776;2023-07-09T07:13:56;4.13;;;2.25;;
38427;SDS011;24211;49.980;19.776;2023-07-09T07:16:24;4.70;;;2.38;;
38427;SDS011;24211;49.980;19.776;2023-07-09T07:18:51;4.50;;;2.45;;
38427;SDS011;24211;49.980;19.776;2023-07-09T07:21:19;5.70;;;2.70;;
38427;SDS011;24211;49.980;19.776;2023-07-09T07:23:47;4.30;;;2.30;;
38427;SDS011;24211;49.980;19.776;2023-07-09T07:26:15;4.47;;;2.40;;
38427;SDS011;24211;49.980;19.776;2023-07-09T07:28:42;3.90;;;2.40;;
38427;SDS011;24211;49.980;19.776;2023-07-09T07:31:09;4.55;;;2.45;;
38427;SDS011;24211;49.980;19.776;2023-07-09T07:33:38;3.85;;;2.47;;
38427;SDS011;24211;49.980;19.776;2023-07-09T07:36:08;4.10;;;2.20;;
38427;SDS011;24211;49.980;19.776;2023-07-09T07:41:07;5.70;;;2.50;;
38427;SDS011;24211;49.980;19.776;2023-07-09T07:43:35;3.80;;;2.22;;
38427;SDS011;24211;49.980;19.776;2023-07-09T07:46:02;4.32;;;2.40;;
38427;SDS011;24211;49.980;19.776;2023-07-09T07:48:30;4.25;;;2.30;;
38427;SDS011;24211;49.980;19.776;2023-07-09T07:50:58;4.22;;;2.10;;
38427;SDS011;24211;49.980;19.776;2023-07-09T07:53:28;4.03;;;2.35;;
38427;SDS011;24211;49.980;19.776;2023-07-09T07:55:57;4.93;;;2.60;;
38427;SDS011;24211;49.980;19.776;2023-07-09T07:58:29;4.13;;;2.30;;
38427;SDS011;24211;49.980;19.776;2023-07-09T08:00:57;4.20;;;2.20;;
38427;SDS011;24211;49.980;19.776;2023-07-09T08:03:25;4.88;;;2.58;;
38427;SDS011;24211;49.980;19.776;2023-07-09T08:05:52;3.47;;;2.25;;
38427;SDS011;24211;49.980;19.776;2023-07-09T08:08:20;5.15;;;2.42;;
38427;SDS011;24211;49.980;19.776;2023-07-09T08:10:50;5.72;;;2.30;;
38427;SDS011;24211;49.980;19.776;2023-07-09T08:13:18;3.60;;;2.20;;
38427;SDS011;24211;49.980;19.776;2023-07-09T08:15:45;3.45;;;2.13;;
38427;SDS011;24211;49.980;19.776;2023-07-09T08:18:15;4.22;;;2.30;;
38427;SDS011;24211;49.980;19.776;2023-07-09T08:20:43;3.88;;;2.15;;
38427;SDS011;24211;49.980;19.776;2023-07-09T08:23:11;3.67;;;2.08;;
38427;SDS011;24211;49.980;19.776;2023-07-09T08:25:38;4.18;;;2.10;;
38427;SDS011;24211;49.980;19.776;2023-07-09T08:28:06;5.15;;;2.25;;
38427;SDS011;24211;49.980;19.776;2023-07-09T08:30:33;5.05;;;2.42;;
38427;SDS011;24211;49.980;19.776;2023-07-09T08:33:02;3.92;;;2.20;;
38427;SDS011;24211;49.980;19.776;2023-07-09T08:35:29;4.82;;;2.35;;
38427;SDS011;24211;49.980;19.776;2023-07-09T08:38:02;4.55;;;2.35;;
38427;SDS011;24211;49.980;19.776;2023-07-09T08:40:30;4.25;;;2.03;;
38427;SDS011;24211;49.980;19.776;2023-07-09T08:43:02;4.20;;;2.15;;
38427;SDS011;24211;49.980;19.776;2023-07-09T08:45:50;4.35;;;2.40;;
38427;SDS011;24211;49.980;19.776;2023-07-09T08:48:30;4.55;;;2.40;;
38427;SDS011;24211;49.980;19.776;2023-07-09T08:51:36;3.88;;;2.30;;
38427;SDS011;24211;49.980;19.776;2023-07-09T08:54:08;3.83;;;2.28;;
38427;SDS011;24211;49.980;19.776;2023-07-09T08:56:52;4.40;;;2.30;;
38427;SDS011;24211;49.980;19.776;2023-07-09T08:59:21;5.05;;;2.10;;
38427;SDS011;24211;49.980;19.776;2023-07-09T09:01:52;3.65;;;2.40;;
38427;SDS011;24211;49.980;19.776;2023-07-09T09:04:30;4.05;;;2.10;;
38427;SDS011;24211;49.980;19.776;2023-07-09T09:07:08;3.80;;;1.90;;
38427;SDS011;24211;49.980;19.776;2023-07-09T09:09:58;4.50;;;2.15;;
38427;SDS011;24211;49.980;19.776;2023-07-09T09:12:32;3.47;;;2.15;;
38427;SDS011;24211;49.980;19.776;2023-07-09T09:15:18;3.40;;;2.00;;
38427;SDS011;24211;49.980;19.776;2023-07-09T09:17:48;5.63;;;2.30;;
38427;SDS011;24211;49.980;19.776;2023-07-09T09:20:38;3.95;;;2.20;;
38427;SDS011;24211;49.980;19.776;2023-07-09T09:25:35;3.53;;;2.30;;
38427;SDS011;24211;49.980;19.776;2023-07-09T09:28:09;4.18;;;2.30;;
38427;SDS011;24211;49.980;19.776;2023-07-09T09:30:36;3.45;;;2.10;;
38427;SDS011;24211;49.980;19.776;2023-07-09T09:33:07;3.35;;;2.13;;
38427;SDS011;24211;49.980;19.776;2023-07-09T09:35:40;4.55;;;2.20;;
38427;SDS011;24211;49.980;19.776;2023-07-09T09:38:11;3.55;;;2.20;;
38427;SDS011;24211;49.980;19.776;2023-07-09T09:40:43;3.90;;;2.15;;
38427;SDS011;24211;49.980;19.776;2023-07-09T09:43:12;3.63;;;2.03;;
38427;SDS011;24211;49.980;19.776;2023-07-09T09:45:43;3.13;;;1.98;;
38427;SDS011;24211;49.980;19.776;2023-07-09T09:48:17;4.00;;;2.10;;
38427;SDS011;24211;49.980;19.776;2023-07-09T09:50:53;3.30;;;1.85;;
38427;SDS011;24211;49.980;19.776;2023-07-09T09:53:28;2.65;;;1.73;;
38427;SDS011;24211;49.980;19.776;2023-07-09T09:56:05;3.40;;;1.92;;
38427;SDS011;24211;49.980;19.776;2023-07-09T09:58:40;5.70;;;2.10;;
38427;SDS011;24211;49.980;19.776;2023-07-09T10:01:12;3.38;;;1.92;;
38427;SDS011;24211;49.980;19.776;2023-07-09T10:03:46;3.05;;;1.73;;
38427;SDS011;24211;49.980;19.776;2023-07-09T10:06:21;3.60;;;2.00;;
38427;SDS011;24211;49.980;19.776;2023-07-09T10:09:15;3.15;;;1.73;;
38427;SDS011;24211;49.980;19.776;2023-07-09T10:17:59;3.58;;;2.00;;
38427;SDS011;24211;49.980;19.776;2023-07-09T10:20:50;4.13;;;1.90;;
38427;SDS011;24211;49.980;19.776;2023-07-09T10:23:39;3.30;;;1.60;;
38427;SDS011;24211;49.980;19.776;2023-07-09T10:26:30;3.38;;;1.73;;
38427;SDS011;24211;49.980;19.776;2023-07-09T10:29:15;5.22;;;1.95;;
38427;SDS011;24211;49.980;19.776;2023-07-09T10:33:17;4.00;;;2.00;;
38427;SDS011;24211;49.980;19.776;2023-07-09T10:35:43;3.65;;;2.08;;
38427;SDS011;24211;49.980;19.776;2023-07-09T10:38:52;3.45;;;1.98;;
38427;SDS011;24211;49.980;19.776;2023-07-09T10:41:28;3.47;;;2.10;;
38427;SDS011;24211;49.980;19.776;2023-07-09T10:44:05;3.25;;;1.90;;
38427;SDS011;24211;49.980;19.776;2023-07-09T10:47:02;3.00;;;1.98;;
38427;SDS011;24211;49.980;19.776;2023-07-09T10:49:38;3.05;;;1.92;;
38427;SDS011;24211;49.980;19.776;2023-07-09T10:54:59;3.17;;;1.80;;
38427;SDS011;24211;49.980;19.776;2023-07-09T10:58:00;3.72;;;2.00;;
38427;SDS011;24211;49.980;19.776;2023-07-09T11:00:41;3.20;;;2.05;;
38427;SDS011;24211;49.980;19.776;2023-07-09T11:03:16;3.38;;;2.10;;
38427;SDS011;24211;49.980;19.776;2023-07-09T11:05:56;3.72;;;2.25;;
38427;SDS011;24211;49.980;19.776;2023-07-09T11:08:25;3.42;;;2.00;;
38427;SDS011;24211;49.980;19.776;2023-07-09T11:11:14;2.67;;;1.80;;
38427;SDS011;24211;49.980;19.776;2023-07-09T11:14:00;4.05;;;2.00;;
38427;SDS011;24211;49.980;19.776;2023-07-09T11:16:39;3.13;;;1.92;;
38427;SDS011;24211;49.980;19.776;2023-07-09T11:19:13;3.80;;;2.25;;
38427;SDS011;24211;49.980;19.776;2023-07-09T11:21:45;3.38;;;2.08;;
38427;SDS011;24211;49.980;19.776;2023-07-09T11:24:45;3.28;;;2.15;;
38427;SDS011;24211;49.980;19.776;2023-07-09T11:29:56;3.55;;;2.10;;
38427;SDS011;24211;49.980;19.776;2023-07-09T11:32:53;5.80;;;2.70;;
38427;SDS011;24211;49.980;19.776;2023-07-09T11:36:28;4.35;;;2.40;;
38427;SDS011;24211;49.980;19.776;2023-07-09T11:38:42;4.20;;;2.65;;
38427;SDS011;24211;49.980;19.776;2023-07-09T11:44:18;3.70;;;2.13;;
38427;SDS011;24211;49.980;19.776;2023-07-09T11:50:01;3.17;;;2.13;;
38427;SDS011;24211;49.980;19.776;2023-07-09T11:52:50;3.47;;;2.10;;
38427;SDS011;24211;49.980;19.776;2023-07-09T11:55:26;3.47;;;2.00;;
38427;SDS011;24211;49.980;19.776;2023-07-09T11:58:14;3.15;;;1.80;;
38427;SDS011;24211;49.980;19.776;2023-07-09T12:00:46;3.00;;;1.80;;
38427;SDS011;24211;49.980;19.776;2023-07-09T12:03:19;2.88;;;1.73;;
38427;SDS011;24211;49.980;19.776;2023-07-09T12:06:03;3.22;;;1.95;;
38427;SDS011;24211;49.980;19.776;2023-07-09T12:08:53;3.60;;;1.90;;
38427;SDS011;24211;49.980;19.776;2023-07-09T12:11:27;3.45;;;2.08;;
38427;SDS011;24211;49.980;19.776;2023-07-09T12:14:10;3.40;;;2.10;;
38427;SDS011;24211;49.980;19.776;2023-07-09T12:16:44;5.10;;;1.90;;
38427;SDS011;24211;49.980;19.776;2023-07-09T12:19:22;2.75;;;1.65;;
38427;SDS011;24211;49.980;19.776;2023-07-09T12:21:52;3.10;;;1.77;;
38427;SDS011;24211;49.980;19.776;2023-07-09T12:24:24;2.97;;;1.80;;
38427;SDS011;24211;49.980;19.776;2023-07-09T12:27:02;4.07;;;2.10;;
38427;SDS011;24211;49.980;19.776;2023-07-09T12:29:45;4.57;;;2.13;;
38427;SDS011;24211;49.980;19.776;2023-07-09T12:32:14;4.53;;;2.25;;
38427;SDS011;24211;49.980;19.776;2023-07-09T12:34:49;3.10;;;2.00;;
38427;SDS011;24211;49.980;19.776;2023-07-09T12:37:19;3.78;;;2.22;;
38427;SDS011;24211;49.980;19.776;2023-07-09T12:39:51;3.38;;;2.13;;
38427;SDS011;24211;49.980;19.776;2023-07-09T12:42:30;4.22;;;1.90;;
38427;SDS011;24211;49.980;19.776;2023-07-09T12:45:04;3.97;;;2.08;;
38427;SDS011;24211;49.980;19.776;2023-07-09T12:47:32;3.95;;;2.17;;
38427;SDS011;24211;49.980;19.776;2023-07-09T12:50:12;4.05;;;2.40;;
38427;SDS011;24211;49.980;19.776;2023-07-09T12:52:56;4.82;;;2.20;;
38427;SDS011;24211;49.980;19.776;2023-07-09T12:55:40;3.92;;;2.10;;
38427;SDS011;24211;49.980;19.776;2023-07-09T12:58:18;3.47;;;2.30;;
38427;SDS011;24211;49.980;19.776;2023-07-09T13:00:49;3.17;;;2.10;;
38427;SDS011;24211;49.980;19.776;2023-07-09T13:03:20;3.80;;;2.00;;
38427;SDS011;24211;49.980;19.776;2023-07-09T13:06:02;3.58;;;2.38;;
38427;SDS011;24211;49.980;19.776;2023-07-09T13:08:40;3.58;;;2.28;;
38427;SDS011;24211;49.980;19.776;2023-07-09T13:11:14;3.15;;;1.92;;
38427;SDS011;24211;49.980;19.776;2023-07-09T13:13:59;3.35;;;2.10;;
38427;SDS011;24211;49.980;19.776;2023-07-09T13:16:38;4.03;;;2.30;;
38427;SDS011;24211;49.980;19.776;2023-07-09T13:19:11;4.57;;;2.17;;
38427;SDS011;24211;49.980;19.776;2023-07-09T13:21:38;4.38;;;2.30;;
38427;SDS011;24211;49.980;19.776;2023-07-09T13:24:12;3.53;;;2.40;;
38427;SDS011;24211;49.980;19.776;2023-07-09T13:26:48;3.60;;;2.30;;
38427;SDS011;24211;49.980;19.776;2023-07-09T13:29:17;3.67;;;2.10;;
38427;SDS011;24211;49.980;19.776;2023-07-09T13:31:47;3.38;;;2.03;;
38427;SDS011;24211;49.980;19.776;2023-07-09T13:34:19;3.30;;;2.05;;
38427;SDS011;24211;49.980;19.776;2023-07-09T13:36:53;4.97;;;2.30;;
38427;SDS011;24211;49.980;19.776;2023-07-09T13:39:23;4.30;;;2.55;;
38427;SDS011;24211;49.980;19.776;2023-07-09T13:41:53;4.28;;;2.40;;
38427;SDS011;24211;49.980;19.776;2023-07-09T13:44:26;3.63;;;2.10;;
38427;SDS011;24211;49.980;19.776;2023-07-09T13:46:57;3.42;;;2.40;;
38427;SDS011;24211;49.980;19.776;2023-07-09T13:49:25;3.90;;;2.20;;
38427;SDS011;24211;49.980;19.776;2023-07-09T13:51:54;3.75;;;2.40;;
38427;SDS011;24211;49.980;19.776;2023-07-09T13:54:28;4.53;;;2.30;;
38427;SDS011;24211;49.980;19.776;2023-07-09T13:57:02;3.45;;;2.40;;
38427;SDS011;24211;49.980;19.776;2023-07-09T13:59:32;3.75;;;2.25;;
38427;SDS011;24211;49.980;19.776;2023-07-09T14:01:59;4.30;;;2.30;;
38427;SDS011;24211;49.980;19.776;2023-07-09T14:04:32;4.30;;;2.42;;
38427;SDS011;24211;49.980;19.776;2023-07-09T14:06:59;4.05;;;2.45;;
38427;SDS011;24211;49.980;19.776;2023-07-09T14:09:27;3.97;;;2.40;;
38427;SDS011;24211;49.980;19.776;2023-07-09T14:11:55;3.92;;;2.20;;
38427;SDS011;24211;49.980;19.776;2023-07-09T14:14:28;3.70;;;2.40;;
38427;SDS011;24211;49.980;19.776;2023-07-09T14:16:59;4.30;;;2.67;;
38427;SDS011;24211;49.980;19.776;2023-07-09T14:19:27;4.60;;;2.50;;
38427;SDS011;24211;49.980;19.776;2023-07-09T14:21:55;3.40;;;2.20;;
38427;SDS011;24211;49.980;19.776;2023-07-09T14:24:23;3.38;;;1.88;;
38427;SDS011;24211;49.980;19.776;2023-07-09T14:26:55;3.63;;;2.45;;
38427;SDS011;24211;49.980;19.776;2023-07-09T14:29:24;4.80;;;2.33;;
38427;SDS011;24211;49.980;19.776;2023-07-09T14:31:52;4.90;;;2.60;;
38427;SDS011;24211;49.980;19.776;2023-07-09T14:34:30;3.20;;;2.33;;
38427;SDS011;24211;49.980;19.776;2023-07-09T14:37:00;4.18;;;2.20;;
38427;SDS011;24211;49.980;19.776;2023-07-09T14:39:28;3.92;;;2.20;;
38427;SDS011;24211;49.980;19.776;2023-07-09T14:41:55;3.75;;;2.40;;
38427;SDS011;24211;49.980;19.776;2023-07-09T14:44:27;4.43;;;2.25;;
38427;SDS011;24211;49.980;19.776;2023-07-09T14:46:57;3.25;;;2.00;;
38427;SDS011;24211;49.980;19.776;2023-07-09T14:49:27;3.80;;;2.23;;
38427;SDS011;24211;49.980;19.776;2023-07-09T14:51:55;3.70;;;2.25;;
38427;SDS011;24211;49.980;19.776;2023-07-09T14:54:23;4.10;;;2.38;;
38427;SDS011;24211;49.980;19.776;2023-07-09T14:56:54;3.97;;;2.20;;
38427;SDS011;24211;49.980;19.776;2023-07-09T14:59:23;4.00;;;2.40;;
38427;SDS011;24211;49.980;19.776;2023-07-09T15:01:52;3.40;;;2.28;;
38427;SDS011;24211;49.980;19.776;2023-07-09T15:06:49;3.83;;;2.50;;
38427;SDS011;24211;49.980;19.776;2023-07-09T15:09:19;3.63;;;2.30;;
38427;SDS011;24211;49.980;19.776;2023-07-09T15:11:58;3.60;;;2.33;;
38427;SDS011;24211;49.980;19.776;2023-07-09T15:14:26;4.97;;;2.40;;
38427;SDS011;24211;49.980;19.776;2023-07-09T15:16:54;5.03;;;2.20;;
38427;SDS011;24211;49.980;19.776;2023-07-09T15:19:26;3.00;;;2.00;;
38427;SDS011;24211;49.980;19.776;2023-07-09T15:21:54;4.75;;;2.50;;
38427;SDS011;24211;49.980;19.776;2023-07-09T15:24:24;3.45;;;2.30;;
38427;SDS011;24211;49.980;19.776;2023-07-09T15:26:56;3.72;;;2.28;;
38427;SDS011;24211;49.980;19.776;2023-07-09T15:29:29;4.40;;;2.30;;
38427;SDS011;24211;49.980;19.776;2023-07-09T15:31:58;4.80;;;2.40;;
38427;SDS011;24211;49.980;19.776;2023-07-09T15:34:27;4.70;;;2.35;;
38427;SDS011;24211;49.980;19.776;2023-07-09T15:36:54;3.70;;;2.28;;